sensor_id;sensor_type;location;lat;lon;timestamp;pressure;altitude;pressure_sealevel;temperature;humidity
72116;BME280;59991;52.140;5.428;2024-03-29T00:00:05;99002.03;;;8.06;82.80
72116;BME280;59991;52.140;5.428;2024-03-29T00:00:36;99009.38;;;8.06;82.40
72116;BME280;59991;52.140;5.428;2024-03-29T00:01:06;99006.69;;;8.06;82.92
72116;BME280;59991;52.140;5.428;2024-03-29T00:01:37;99012.09;;;8.06;82.54
72116;BME280;59991;52.140;5.428;2024-03-29T00:02:07;99013.28;;;8.05;83.44
72116;BME280;59991;52.140;5.428;2024-03-29T00:02:38;99012.09;;;8.06;83.24
72116;BME280;59991;52.140;5.428;2024-03-29T00:03:09;99000.88;;;8.04;82.73
72116;BME280;59991;52.140;5.428;2024-03-29T00:03:39;99000.88;;;8.04;82.95
72116;BME280;59991;52.140;5.428;2024-03-29T00:04:10;99006.72;;;8.02;83.08
72116;BME280;59991;52.140;5.428;2024-03-29T00:04:41;99001.28;;;8.02;83.30
72116;BME280;59991;52.140;5.428;2024-03-29T00:05:11;99005.94;;;8.02;83.84
72116;BME280;59991;52.140;5.428;2024-03-29T00:05:42;99006.72;;;8.02;83.88
72116;BME280;59991;52.140;5.428;2024-03-29T00:06:12;99003.63;;;8.00;83.37
72116;BME280;59991;52.140;5.428;2024-03-29T00:06:43;99005.56;;;8.00;83.44
72116;BME280;59991;52.140;5.428;2024-03-29T00:07:13;99001.31;;;7.98;83.49
72116;BME280;59991;52.140;5.428;2024-03-29T00:07:44;99005.97;;;7.98;83.59
72116;BME280;59991;52.140;5.428;2024-03-29T00:08:14;99000.53;;;7.98;82.94
72116;BME280;59991;52.140;5.428;2024-03-29T00:08:45;98997.47;;;7.96;82.97
72116;BME280;59991;52.140;5.428;2024-03-29T00:09:15;98995.50;;;7.96;83.63
72116;BME280;59991;52.140;5.428;2024-03-29T00:09:46;98993.97;;;7.95;83.55
72116;BME280;59991;52.140;5.428;2024-03-29T00:10:16;98999.81;;;7.94;83.86
72116;BME280;59991;52.140;5.428;2024-03-29T00:10:47;98995.16;;;7.94;83.46
72116;BME280;59991;52.140;5.428;2024-03-29T00:12:07;98992.84;;;7.93;83.49
72116;BME280;59991;52.140;5.428;2024-03-29T00:12:38;98995.19;;;7.91;83.73
72116;BME280;59991;52.140;5.428;2024-03-29T00:13:08;98993.22;;;7.91;83.97
72116;BME280;59991;52.140;5.428;2024-03-29T00:13:39;98995.19;;;7.91;84.37
72116;BME280;59991;52.140;5.428;2024-03-29T00:14:28;98999.84;;;7.90;83.85
72116;BME280;59991;52.140;5.428;2024-03-29T00:14:58;98986.66;;;7.89;83.86
72116;BME280;59991;52.140;5.428;2024-03-29T00:15:31;98996.00;;;7.88;83.88
72116;BME280;59991;52.140;5.428;2024-03-29T00:16:02;98994.06;;;7.88;83.62
72116;BME280;59991;52.140;5.428;2024-03-29T00:16:33;98995.25;;;7.87;83.72
72116;BME280;59991;52.140;5.428;2024-03-29T00:17:04;99001.44;;;7.88;83.79
72116;BME280;59991;52.140;5.428;2024-03-29T00:17:34;98995.25;;;7.87;84.11
72116;BME280;59991;52.140;5.428;2024-03-29T00:18:06;98994.47;;;7.87;84.38
72116;BME280;59991;52.140;5.428;2024-03-29T00:18:37;98997.94;;;7.87;84.22
72116;BME280;59991;52.140;5.428;2024-03-29T00:19:07;99000.28;;;7.85;83.98
72116;BME280;59991;52.140;5.428;2024-03-29T00:19:38;98999.53;;;7.85;84.38
72116;BME280;59991;52.140;5.428;2024-03-29T00:20:09;99000.28;;;7.85;84.50
72116;BME280;59991;52.140;5.428;2024-03-29T00:20:39;99000.69;;;7.84;84.76
72116;BME280;59991;52.140;5.428;2024-03-29T00:21:10;98998.75;;;7.84;84.34
72116;BME280;59991;52.140;5.428;2024-03-29T00:21:40;98996.44;;;7.83;84.09
72116;BME280;59991;52.140;5.428;2024-03-29T00:22:11;99003.41;;;7.84;84.03
72116;BME280;59991;52.140;5.428;2024-03-29T00:22:41;99004.59;;;7.83;84.74
72116;BME280;59991;52.140;5.428;2024-03-29T00:23:12;99007.28;;;7.83;84.08
72116;BME280;59991;52.140;5.428;2024-03-29T00:23:42;99001.88;;;7.83;83.97
72116;BME280;59991;52.140;5.428;2024-03-29T00:24:15;99005.75;;;7.82;83.94
72116;BME280;59991;52.140;5.428;2024-03-29T00:24:45;99004.97;;;7.81;84.75
72116;BME280;59991;52.140;5.428;2024-03-29T00:25:16;99006.91;;;7.81;84.48
72116;BME280;59991;52.140;5.428;2024-03-29T00:25:47;99000.72;;;7.80;84.51
72116;BME280;59991;52.140;5.428;2024-03-29T00:26:18;99005.38;;;7.80;84.57
72116;BME280;59991;52.140;5.428;2024-03-29T00:26:48;99004.59;;;7.79;84.87
72116;BME280;59991;52.140;5.428;2024-03-29T00:27:19;99004.59;;;7.79;84.61
72116;BME280;59991;52.140;5.428;2024-03-29T00:27:49;99004.59;;;7.79;84.52
72116;BME280;59991;52.140;5.428;2024-03-29T00:28:20;99011.22;;;7.78;84.65
72116;BME280;59991;52.140;5.428;2024-03-29T00:28:50;99006.56;;;7.79;85.33
72116;BME280;59991;52.140;5.428;2024-03-29T00:29:21;99009.25;;;7.79;84.94
72116;BME280;59991;52.140;5.428;2024-03-29T00:29:51;99004.25;;;7.77;84.95
72116;BME280;59991;52.140;5.428;2024-03-29T00:30:23;99008.91;;;7.77;85.12
72116;BME280;59991;52.140;5.428;2024-03-29T00:31:12;99008.13;;;7.76;85.25
72116;BME280;59991;52.140;5.428;2024-03-29T00:31:43;99005.41;;;7.76;85.22
72116;BME280;59991;52.140;5.428;2024-03-29T00:32:31;99010.06;;;7.76;85.27
72116;BME280;59991;52.140;5.428;2024-03-29T00:33:02;99008.53;;;7.75;84.75
72116;BME280;59991;52.140;5.428;2024-03-29T00:33:33;99013.94;;;7.75;85.48
72116;BME280;59991;52.140;5.428;2024-03-29T00:34:03;99003.09;;;7.75;85.52
72116;BME280;59991;52.140;5.428;2024-03-29T00:34:34;99013.94;;;7.75;85.34
72116;BME280;59991;52.140;5.428;2024-03-29T00:35:05;99013.94;;;7.75;85.59
72116;BME280;59991;52.140;5.428;2024-03-29T00:35:35;99013.19;;;7.74;85.65
72116;BME280;59991;52.140;5.428;2024-03-29T00:36:06;99013.94;;;7.75;85.70
72116;BME280;59991;52.140;5.428;2024-03-29T00:36:36;99015.88;;;7.74;85.16
72116;BME280;59991;52.140;5.428;2024-03-29T00:37:07;99020.91;;;7.76;85.78
72116;BME280;59991;52.140;5.428;2024-03-29T00:37:37;99020.16;;;7.75;86.24
72116;BME280;59991;52.140;5.428;2024-03-29T00:38:08;99012.00;;;7.75;85.30
72116;BME280;59991;52.140;5.428;2024-03-29T00:38:38;99019.78;;;7.73;85.50
72116;BME280;59991;52.140;5.428;2024-03-29T00:39:09;99010.88;;;7.73;85.62
72116;BME280;59991;52.140;5.428;2024-03-29T00:40:30;99014.75;;;7.72;85.37
72116;BME280;59991;52.140;5.428;2024-03-29T00:41:01;99023.66;;;7.72;84.94
72116;BME280;59991;52.140;5.428;2024-03-29T00:41:32;99019.41;;;7.71;85.72
72116;BME280;59991;52.140;5.428;2024-03-29T00:42:03;99022.13;;;7.71;85.33
72116;BME280;59991;52.140;5.428;2024-03-29T00:42:36;99025.59;;;7.72;85.34
72116;BME280;59991;52.140;5.428;2024-03-29T00:43:07;99031.03;;;7.72;85.70
72116;BME280;59991;52.140;5.428;2024-03-29T00:43:37;99014.41;;;7.70;85.65
72116;BME280;59991;52.140;5.428;2024-03-29T00:44:08;99022.13;;;7.71;85.15
72116;BME280;59991;52.140;5.428;2024-03-29T00:44:39;99024.06;;;7.71;85.07
72116;BME280;59991;52.140;5.428;2024-03-29T00:45:09;99025.59;;;7.72;85.30
72116;BME280;59991;52.140;5.428;2024-03-29T00:45:40;99031.78;;;7.72;85.64
72116;BME280;59991;52.140;5.428;2024-03-29T00:46:11;99025.59;;;7.72;85.65
72116;BME280;59991;52.140;5.428;2024-03-29T00:47:32;99028.31;;;7.72;85.29
72116;BME280;59991;52.140;5.428;2024-03-29T00:48:03;99029.47;;;7.71;85.62
72116;BME280;59991;52.140;5.428;2024-03-29T00:48:34;99033.75;;;7.72;85.18
72116;BME280;59991;52.140;5.428;2024-03-29T00:49:04;99034.13;;;7.70;85.03
72116;BME280;59991;52.140;5.428;2024-03-29T00:49:35;99035.34;;;7.69;85.18
72116;BME280;59991;52.140;5.428;2024-03-29T00:50:06;99040.75;;;7.69;85.41
72116;BME280;59991;52.140;5.428;2024-03-29T00:50:39;99040.75;;;7.69;85.16
72116;BME280;59991;52.140;5.428;2024-03-29T00:51:10;99038.84;;;7.66;85.94
72116;BME280;59991;52.140;5.428;2024-03-29T00:51:40;99040.78;;;7.66;85.62
72116;BME280;59991;52.140;5.428;2024-03-29T00:52:11;99043.50;;;7.66;85.60
72116;BME280;59991;52.140;5.428;2024-03-29T00:52:42;99034.19;;;7.67;85.52
72116;BME280;59991;52.140;5.428;2024-03-29T00:53:12;99033.41;;;7.66;85.04
72116;BME280;59991;52.140;5.428;2024-03-29T00:53:43;99044.28;;;7.66;85.22
72116;BME280;59991;52.140;5.428;2024-03-29T00:54:13;99030.31;;;7.68;85.78
72116;BME280;59991;52.140;5.428;2024-03-29T00:54:44;99034.19;;;7.67;85.73
72116;BME280;59991;52.140;5.428;2024-03-29T00:55:15;99034.56;;;7.69;85.29
72116;BME280;59991;52.140;5.428;2024-03-29T00:55:46;99038.44;;;7.68;85.82
72116;BME280;59991;52.140;5.428;2024-03-29T00:56:16;99031.09;;;7.68;85.95
72116;BME280;59991;52.140;5.428;2024-03-29T00:56:47;99038.06;;;7.69;85.41
72116;BME280;59991;52.140;5.428;2024-03-29T00:57:17;99039.22;;;7.68;85.63
72116;BME280;59991;52.140;5.428;2024-03-29T00:57:48;99043.88;;;7.68;85.59
72116;BME280;59991;52.140;5.428;2024-03-29T00:58:18;99036.91;;;7.67;85.21
72116;BME280;59991;52.140;5.428;2024-03-29T00:58:49;99037.69;;;7.67;85.53
72116;BME280;59991;52.140;5.428;2024-03-29T00:59:19;99031.47;;;7.67;85.52
72116;BME280;59991;52.140;5.428;2024-03-29T01:00:42;99041.94;;;7.68;85.47
72116;BME280;59991;52.140;5.428;2024-03-29T01:01:12;99037.69;;;7.67;85.77
72116;BME280;59991;52.140;5.428;2024-03-29T01:01:43;99045.03;;;7.67;85.57
72116;BME280;59991;52.140;5.428;2024-03-29T01:02:14;99039.63;;;7.67;86.03
72116;BME280;59991;52.140;5.428;2024-03-29T01:02:45;99036.50;;;7.68;85.92
72116;BME280;59991;52.140;5.428;2024-03-29T01:03:15;99041.16;;;7.68;85.90
72116;BME280;59991;52.140;5.428;2024-03-29T01:03:46;99039.63;;;7.67;85.42
72116;BME280;59991;52.140;5.428;2024-03-29T01:04:17;99038.84;;;7.66;85.53
72116;BME280;59991;52.140;5.428;2024-03-29T01:04:48;99042.34;;;7.67;85.83
72116;BME280;59991;52.140;5.428;2024-03-29T01:05:18;99040.78;;;7.66;85.83
72116;BME280;59991;52.140;5.428;2024-03-29T01:05:49;99041.56;;;7.66;85.93
72116;BME280;59991;52.140;5.428;2024-03-29T01:06:19;99036.91;;;7.67;86.02
72116;BME280;59991;52.140;5.428;2024-03-29T01:06:50;99046.97;;;7.66;86.01
72116;BME280;59991;52.140;5.428;2024-03-29T01:07:20;99036.91;;;7.67;85.84
72116;BME280;59991;52.140;5.428;2024-03-29T01:07:51;99043.50;;;7.66;86.04
72116;BME280;59991;52.140;5.428;2024-03-29T01:08:21;99036.53;;;7.65;86.51
72116;BME280;59991;52.140;5.428;2024-03-29T01:08:53;99046.59;;;7.64;86.13
72116;BME280;59991;52.140;5.428;2024-03-29T01:09:24;99040.00;;;7.65;86.13
72116;BME280;59991;52.140;5.428;2024-03-29T01:09:54;99040.00;;;7.65;86.17
72116;BME280;59991;52.140;5.428;2024-03-29T01:10:25;99035.00;;;7.63;86.66
72116;BME280;59991;52.140;5.428;2024-03-29T01:10:55;99038.88;;;7.62;86.49
72116;BME280;59991;52.140;5.428;2024-03-29T01:11:26;99037.31;;;7.61;85.90
72116;BME280;59991;52.140;5.428;2024-03-29T01:11:57;99031.91;;;7.61;86.99
72116;BME280;59991;52.140;5.428;2024-03-29T01:12:27;99034.63;;;7.61;85.88
72116;BME280;59991;52.140;5.428;2024-03-29T01:12:58;99031.13;;;7.61;86.13
72116;BME280;59991;52.140;5.428;2024-03-29T01:13:28;99030.34;;;7.60;86.25
72116;BME280;59991;52.140;5.428;2024-03-29T01:13:59;99030.34;;;7.60;86.26
72116;BME280;59991;52.140;5.428;2024-03-29T01:14:29;99030.75;;;7.59;86.91
72116;BME280;59991;52.140;5.428;2024-03-29T01:15:00;99032.31;;;7.60;86.34
72116;BME280;59991;52.140;5.428;2024-03-29T01:15:30;99035.00;;;7.60;86.77
72116;BME280;59991;52.140;5.428;2024-03-29T01:16:01;99036.94;;;7.59;86.76
72116;BME280;59991;52.140;5.428;2024-03-29T01:16:31;99038.50;;;7.60;86.68
72116;BME280;59991;52.140;5.428;2024-03-29T01:17:02;99037.72;;;7.60;86.32
72116;BME280;59991;52.140;5.428;2024-03-29T01:17:33;99035.78;;;7.60;87.06
72116;BME280;59991;52.140;5.428;2024-03-29T01:18:04;99038.50;;;7.60;86.51
72116;BME280;59991;52.140;5.428;2024-03-29T01:18:34;99033.84;;;7.61;86.44
72116;BME280;59991;52.140;5.428;2024-03-29T01:19:05;99035.78;;;7.60;86.95
72116;BME280;59991;52.140;5.428;2024-03-29T01:19:35;99035.78;;;7.60;87.39
72116;BME280;59991;52.140;5.428;2024-03-29T01:20:06;99035.00;;;7.60;86.89
72116;BME280;59991;52.140;5.428;2024-03-29T01:20:55;99033.06;;;7.60;86.77
72116;BME280;59991;52.140;5.428;2024-03-29T01:21:26;99030.75;;;7.59;86.78
72116;BME280;59991;52.140;5.428;2024-03-29T01:22:15;99030.34;;;7.60;86.78
72116;BME280;59991;52.140;5.428;2024-03-29T01:22:46;99030.34;;;7.60;86.79
72116;BME280;59991;52.140;5.428;2024-03-29T01:23:16;99030.34;;;7.60;87.19
72116;BME280;59991;52.140;5.428;2024-03-29T01:23:47;99024.94;;;7.60;87.24
72116;BME280;59991;52.140;5.428;2024-03-29T01:24:17;99025.72;;;7.57;87.11
72116;BME280;59991;52.140;5.428;2024-03-29T01:24:48;99024.56;;;7.58;86.43
72116;BME280;59991;52.140;5.428;2024-03-29T01:25:19;99028.44;;;7.57;86.87
72116;BME280;59991;52.140;5.428;2024-03-29T01:25:49;99019.91;;;7.59;87.04
72116;BME280;59991;52.140;5.428;2024-03-29T01:27:09;99021.06;;;7.58;87.37
72116;BME280;59991;52.140;5.428;2024-03-29T01:27:41;99021.84;;;7.58;87.45
72116;BME280;59991;52.140;5.428;2024-03-29T01:28:12;99028.44;;;7.57;87.45
72116;BME280;59991;52.140;5.428;2024-03-29T01:28:43;99025.72;;;7.57;87.34
72116;BME280;59991;52.140;5.428;2024-03-29T01:29:14;99027.28;;;7.58;87.47
72116;BME280;59991;52.140;5.428;2024-03-29T01:29:45;99021.06;;;7.58;87.05
72116;BME280;59991;52.140;5.428;2024-03-29T01:30:15;99016.44;;;7.58;87.10
72116;BME280;59991;52.140;5.428;2024-03-29T01:30:52;99009.47;;;7.57;87.23
72116;BME280;59991;52.140;5.428;2024-03-29T01:31:23;99014.88;;;7.57;87.47
72116;BME280;59991;52.140;5.428;2024-03-29T01:31:54;99018.38;;;7.58;87.75
72116;BME280;59991;52.140;5.428;2024-03-29T01:32:24;99019.53;;;7.57;87.43
72116;BME280;59991;52.140;5.428;2024-03-29T01:33:13;99014.88;;;7.57;87.47
72116;BME280;59991;52.140;5.428;2024-03-29T01:33:44;99017.59;;;7.57;87.58
72116;BME280;59991;52.140;5.428;2024-03-29T01:34:14;99024.16;;;7.60;86.80
72116;BME280;59991;52.140;5.428;2024-03-29T01:34:45;99020.31;;;7.57;87.66
72116;BME280;59991;52.140;5.428;2024-03-29T01:35:15;99016.81;;;7.57;87.34
72116;BME280;59991;52.140;5.428;2024-03-29T01:35:46;99014.50;;;7.55;87.52
72116;BME280;59991;52.140;5.428;2024-03-29T01:36:16;99015.28;;;7.56;87.26
72116;BME280;59991;52.140;5.428;2024-03-29T01:36:47;99017.22;;;7.55;87.69
72116;BME280;59991;52.140;5.428;2024-03-29T01:37:17;99019.16;;;7.55;87.74
72116;BME280;59991;52.140;5.428;2024-03-29T01:37:48;99011.41;;;7.53;87.39
72116;BME280;59991;52.140;5.428;2024-03-29T01:39:08;99012.19;;;7.54;87.43
72116;BME280;59991;52.140;5.428;2024-03-29T01:39:40;99020.34;;;7.54;87.86
72116;BME280;59991;52.140;5.428;2024-03-29T01:40:11;99018.38;;;7.54;87.27
72116;BME280;59991;52.140;5.428;2024-03-29T01:40:42;99016.44;;;7.55;87.09
72116;BME280;59991;52.140;5.428;2024-03-29T01:41:13;99014.91;;;7.54;87.25
72116;BME280;59991;52.140;5.428;2024-03-29T01:41:43;99006.78;;;7.54;87.18
72116;BME280;59991;52.140;5.428;2024-03-29T01:42:14;99009.47;;;7.54;87.50
72116;BME280;59991;52.140;5.428;2024-03-29T01:42:44;99007.94;;;7.53;87.58
72116;BME280;59991;52.140;5.428;2024-03-29T01:43:15;99008.72;;;7.53;87.66
72116;BME280;59991;52.140;5.428;2024-03-29T01:43:45;99007.53;;;7.54;87.64
72116;BME280;59991;52.140;5.428;2024-03-29T01:44:16;99004.84;;;7.54;87.47
72116;BME280;59991;52.140;5.428;2024-03-29T01:44:46;99002.13;;;7.54;87.08
72116;BME280;59991;52.140;5.428;2024-03-29T01:45:17;98999.41;;;7.54;87.70
72116;BME280;59991;52.140;5.428;2024-03-29T01:45:48;99001.34;;;7.54;87.18
72116;BME280;59991;52.140;5.428;2024-03-29T01:46:23;99004.84;;;7.54;86.90
72116;BME280;59991;52.140;5.428;2024-03-29T01:46:54;99003.28;;;7.53;87.12
72116;BME280;59991;52.140;5.428;2024-03-29T01:47:24;98993.59;;;7.52;87.10
72116;BME280;59991;52.140;5.428;2024-03-29T01:47:55;98993.22;;;7.54;86.58
72116;BME280;59991;52.140;5.428;2024-03-29T01:48:26;98998.63;;;7.54;87.28
72116;BME280;59991;52.140;5.428;2024-03-29T01:49:15;98998.22;;;7.55;87.11
72116;BME280;59991;52.140;5.428;2024-03-29T01:49:46;99002.13;;;7.54;87.15
72116;BME280;59991;52.140;5.428;2024-03-29T01:50:17;98999.41;;;7.54;87.18
72116;BME280;59991;52.140;5.428;2024-03-29T01:50:48;98996.69;;;7.54;87.23
72116;BME280;59991;52.140;5.428;2024-03-29T01:51:21;98999.41;;;7.54;87.09
72116;BME280;59991;52.140;5.428;2024-03-29T01:51:52;98998.63;;;7.54;86.93
72116;BME280;59991;52.140;5.428;2024-03-29T01:53:13;99000.94;;;7.55;87.15
72116;BME280;59991;52.140;5.428;2024-03-29T01:54:03;98997.06;;;7.56;87.09
72116;BME280;59991;52.140;5.428;2024-03-29T01:54:34;98996.69;;;7.54;86.64
72116;BME280;59991;52.140;5.428;2024-03-29T01:55:05;98996.69;;;7.54;86.97
72116;BME280;59991;52.140;5.428;2024-03-29T01:55:36;98996.31;;;7.52;86.80
72116;BME280;59991;52.140;5.428;2024-03-29T01:56:07;99004.06;;;7.54;86.82
72116;BME280;59991;52.140;5.428;2024-03-29T01:56:39;98997.88;;;7.53;86.57
72116;BME280;59991;52.140;5.428;2024-03-29T01:57:11;98996.31;;;7.52;86.63
72116;BME280;59991;52.140;5.428;2024-03-29T01:57:43;98997.88;;;7.53;86.57
72116;BME280;59991;52.140;5.428;2024-03-29T01:58:14;98992.44;;;7.53;87.21
72116;BME280;59991;52.140;5.428;2024-03-29T01:58:45;98987.00;;;7.53;86.87
72116;BME280;59991;52.140;5.428;2024-03-29T01:59:17;98991.66;;;7.53;87.37
72116;BME280;59991;52.140;5.428;2024-03-29T01:59:49;98985.47;;;7.52;86.97
72116;BME280;59991;52.140;5.428;2024-03-29T02:00:20;98977.34;;;7.52;87.13
72116;BME280;59991;52.140;5.428;2024-03-29T02:00:53;98975.41;;;7.53;87.16
72116;BME280;59991;52.140;5.428;2024-03-29T02:01:26;98971.13;;;7.52;87.20
72116;BME280;59991;52.140;5.428;2024-03-29T02:01:57;98975.03;;;7.51;87.48
72116;BME280;59991;52.140;5.428;2024-03-29T02:02:29;98977.00;;;7.50;86.83
72116;BME280;59991;52.140;5.428;2024-03-29T02:02:59;98978.16;;;7.49;86.78
72116;BME280;59991;52.140;5.428;2024-03-29T02:03:49;98980.09;;;7.49;86.83
72116;BME280;59991;52.140;5.428;2024-03-29T02:04:21;98977.78;;;7.47;86.89
72116;BME280;59991;52.140;5.428;2024-03-29T02:04:52;98979.34;;;7.48;87.10
72116;BME280;59991;52.140;5.428;2024-03-29T02:05:24;98982.44;;;7.47;87.20
72116;BME280;59991;52.140;5.428;2024-03-29T02:05:56;98984.38;;;7.46;87.13
72116;BME280;59991;52.140;5.428;2024-03-29T02:06:28;98984.38;;;7.46;87.04
72116;BME280;59991;52.140;5.428;2024-03-29T02:06:59;98978.97;;;7.46;87.49
72116;BME280;59991;52.140;5.428;2024-03-29T02:07:31;98985.56;;;7.45;86.90
72116;BME280;59991;52.140;5.428;2024-03-29T02:08:01;98982.84;;;7.45;86.67
72116;BME280;59991;52.140;5.428;2024-03-29T02:08:33;98981.66;;;7.46;86.88
72116;BME280;59991;52.140;5.428;2024-03-29T02:09:04;98987.09;;;7.46;87.38
72116;BME280;59991;52.140;5.428;2024-03-29T02:09:35;98983.63;;;7.46;87.42
72116;BME280;59991;52.140;5.428;2024-03-29T02:11:13;98981.66;;;7.46;87.45
72116;BME280;59991;52.140;5.428;2024-03-29T02:12:52;98980.53;;;7.44;87.37
72116;BME280;59991;52.140;5.428;2024-03-29T02:13:22;98982.47;;;7.43;86.68
72116;BME280;59991;52.140;5.428;2024-03-29T02:13:53;98980.94;;;7.42;87.07
72116;BME280;59991;52.140;5.428;2024-03-29T02:14:23;98980.16;;;7.42;87.05
72116;BME280;59991;52.140;5.428;2024-03-29T02:14:54;98979.38;;;7.41;87.21
72116;BME280;59991;52.140;5.428;2024-03-29T02:15:25;98977.84;;;7.40;87.30
72116;BME280;59991;52.140;5.428;2024-03-29T02:15:56;98982.50;;;7.40;87.12
72116;BME280;59991;52.140;5.428;2024-03-29T02:16:45;98976.69;;;7.38;86.82
72116;BME280;59991;52.140;5.428;2024-03-29T02:17:16;98982.53;;;7.36;87.40
72116;BME280;59991;52.140;5.428;2024-03-29T02:17:46;98989.88;;;7.36;87.03
72116;BME280;59991;52.140;5.428;2024-03-29T02:18:17;98986.41;;;7.35;86.96
72116;BME280;59991;52.140;5.428;2024-03-29T02:18:47;99001.50;;;7.36;87.05
72116;BME280;59991;52.140;5.428;2024-03-29T02:19:18;98997.25;;;7.35;87.35
72116;BME280;59991;52.140;5.428;2024-03-29T02:19:48;98995.69;;;7.34;87.58
72116;BME280;59991;52.140;5.428;2024-03-29T02:20:19;98993.75;;;7.35;87.72
72116;BME280;59991;52.140;5.428;2024-03-29T02:21:45;98997.63;;;7.34;86.87
72116;BME280;59991;52.140;5.428;2024-03-29T02:22:19;99000.34;;;7.34;86.94
72116;BME280;59991;52.140;5.428;2024-03-29T02:23:14;98995.69;;;7.34;86.75
72116;BME280;59991;52.140;5.428;2024-03-29T02:24:21;98995.69;;;7.34;87.21
72116;BME280;59991;52.140;5.428;2024-03-29T02:24:52;98999.59;;;7.33;87.06
72116;BME280;59991;52.140;5.428;2024-03-29T02:25:24;99003.84;;;7.34;87.30
72116;BME280;59991;52.140;5.428;2024-03-29T02:25:55;99005.00;;;7.33;87.47
72116;BME280;59991;52.140;5.428;2024-03-29T02:27:16;99004.59;;;7.35;88.10
72116;BME280;59991;52.140;5.428;2024-03-29T02:27:47;99006.53;;;7.34;87.93
72116;BME280;59991;52.140;5.428;2024-03-29T02:28:18;99006.53;;;7.34;87.07
72116;BME280;59991;52.140;5.428;2024-03-29T02:28:48;99017.03;;;7.32;87.08
72116;BME280;59991;52.140;5.428;2024-03-29T02:29:19;99012.03;;;7.31;87.78
72116;BME280;59991;52.140;5.428;2024-03-29T02:29:49;99006.59;;;7.31;88.05
72116;BME280;59991;52.140;5.428;2024-03-29T02:30:20;99012.78;;;7.31;87.46
72116;BME280;59991;52.140;5.428;2024-03-29T02:30:50;99005.41;;;7.32;87.11
72116;BME280;59991;52.140;5.428;2024-03-29T02:31:21;99010.81;;;7.32;87.82
72116;BME280;59991;52.140;5.428;2024-03-29T02:31:52;99012.78;;;7.31;87.96
72116;BME280;59991;52.140;5.428;2024-03-29T02:32:22;99011.59;;;7.32;87.69
72116;BME280;59991;52.140;5.428;2024-03-29T02:32:53;99018.22;;;7.31;87.52
72116;BME280;59991;52.140;5.428;2024-03-29T02:33:24;99016.25;;;7.32;87.09
72116;BME280;59991;52.140;5.428;2024-03-29T02:33:54;99020.16;;;7.31;87.77
72116;BME280;59991;52.140;5.428;2024-03-29T02:34:25;99020.94;;;7.31;87.66
72116;BME280;59991;52.140;5.428;2024-03-29T02:34:56;99025.56;;;7.31;87.96
72116;BME280;59991;52.140;5.428;2024-03-29T02:35:26;99029.06;;;7.31;87.62
72116;BME280;59991;52.140;5.428;2024-03-29T02:36:15;99034.47;;;7.31;87.32
72116;BME280;59991;52.140;5.428;2024-03-29T02:36:46;99033.72;;;7.31;87.55
72116;BME280;59991;52.140;5.428;2024-03-29T02:37:35;99027.09;;;7.32;87.77
72116;BME280;59991;52.140;5.428;2024-03-29T02:38:06;99027.50;;;7.30;87.54
72116;BME280;59991;52.140;5.428;2024-03-29T02:38:37;99016.66;;;7.30;87.84
72116;BME280;59991;52.140;5.428;2024-03-29T02:39:07;99019.00;;;7.28;87.40
72116;BME280;59991;52.140;5.428;2024-03-29T02:39:38;99019.00;;;7.28;87.39
72116;BME280;59991;52.140;5.428;2024-03-29T02:40:08;99019.78;;;7.28;87.17
72116;BME280;59991;52.140;5.428;2024-03-29T02:40:39;99018.22;;;7.27;87.92
72116;BME280;59991;52.140;5.428;2024-03-29T02:41:10;99017.47;;;7.27;87.61
72116;BME280;59991;52.140;5.428;2024-03-29T02:41:40;99026.38;;;7.27;88.16
72116;BME280;59991;52.140;5.428;2024-03-29T02:42:11;99022.13;;;7.26;88.11
72116;BME280;59991;52.140;5.428;2024-03-29T02:42:41;99023.69;;;7.24;87.25
72116;BME280;59991;52.140;5.428;2024-03-29T02:43:30;99022.50;;;7.25;88.15
72116;BME280;59991;52.140;5.428;2024-03-29T02:44:01;99027.94;;;7.25;87.80
72116;BME280;59991;52.140;5.428;2024-03-29T02:44:32;99022.50;;;7.25;88.30
72116;BME280;59991;52.140;5.428;2024-03-29T02:45:03;99030.66;;;7.25;87.93
72116;BME280;59991;52.140;5.428;2024-03-29T02:45:34;99024.06;;;7.26;88.47
72116;BME280;59991;52.140;5.428;2024-03-29T02:46:05;99029.47;;;7.26;88.17
72116;BME280;59991;52.140;5.428;2024-03-29T02:46:35;99024.06;;;7.26;88.56
72116;BME280;59991;52.140;5.428;2024-03-29T02:47:06;99022.50;;;7.25;87.87
72116;BME280;59991;52.140;5.428;2024-03-29T02:47:36;99033.34;;;7.25;87.94
72116;BME280;59991;52.140;5.428;2024-03-29T02:48:25;99025.59;;;7.27;88.13
72116;BME280;59991;52.140;5.428;2024-03-29T02:48:56;99024.06;;;7.26;88.12
72116;BME280;59991;52.140;5.428;2024-03-29T02:49:45;99024.44;;;7.28;87.86
72116;BME280;59991;52.140;5.428;2024-03-29T02:50:16;99020.94;;;7.27;87.83
72116;BME280;59991;52.140;5.428;2024-03-29T02:50:46;99031.03;;;7.27;88.27
72116;BME280;59991;52.140;5.428;2024-03-29T02:51:36;99027.53;;;7.26;87.54
72116;BME280;59991;52.140;5.428;2024-03-29T02:52:06;99027.53;;;7.26;87.73
72116;BME280;59991;52.140;5.428;2024-03-29T02:52:37;99029.47;;;7.26;87.91
72116;BME280;59991;52.140;5.428;2024-03-29T02:53:07;99021.34;;;7.26;87.71
72116;BME280;59991;52.140;5.428;2024-03-29T02:53:38;99022.50;;;7.25;88.46
72116;BME280;59991;52.140;5.428;2024-03-29T02:54:27;99020.56;;;7.25;88.49
72116;BME280;59991;52.140;5.428;2024-03-29T02:54:58;99015.16;;;7.25;87.70
72116;BME280;59991;52.140;5.428;2024-03-29T02:55:47;99021.34;;;7.26;88.21
72116;BME280;59991;52.140;5.428;2024-03-29T02:56:17;99009.72;;;7.25;87.57
72116;BME280;59991;52.140;5.428;2024-03-29T02:56:51;99019.41;;;7.26;87.33
72116;BME280;59991;52.140;5.428;2024-03-29T02:57:40;99019.00;;;7.28;88.55
72116;BME280;59991;52.140;5.428;2024-03-29T02:58:11;99020.19;;;7.27;88.47
72116;BME280;59991;52.140;5.428;2024-03-29T02:58:41;99008.56;;;7.26;88.61
72116;BME280;59991;52.140;5.428;2024-03-29T02:59:30;99024.44;;;7.28;87.69
72116;BME280;59991;52.140;5.428;2024-03-29T03:00:02;99013.97;;;7.26;88.45
72116;BME280;59991;52.140;5.428;2024-03-29T03:00:33;99022.13;;;7.26;88.12
72116;BME280;59991;52.140;5.428;2024-03-29T03:01:08;99019.41;;;7.26;88.15
72116;BME280;59991;52.140;5.428;2024-03-29T03:01:40;99015.16;;;7.25;88.02
72116;BME280;59991;52.140;5.428;2024-03-29T03:02:10;99016.69;;;7.26;88.60